Time;durP1;ratioP1;P1;durP2;ratioP2;P2;SDS_P1;SDS_P2;PMS_P1;PMS_P2;Temp;Humidity;BMP_temperature;BMP_pressure;BME280_temperature;BME280_humidity;BME280_pressure;Samples;Min_cycle;Max_cycle;Signal;HPM_P1;HPM_P2
2023/02/01 00:05:17;;;;;;;4.68;1.52;;;;;;;4.01;100.00;98348.34;15300509;19;20016;-77
2023/02/01 00:10:42;;;;;;;4.65;1.60;;;;;;;4.03;100.00;98339.38;15298558;19;20022;-79
2023/02/01 00:16:09;;;;;;;5.78;1.85;;;;;;;4.03;100.00;98331.38;15303242;19;20027;-81
2023/02/01 00:21:38;;;;;;;5.82;1.67;;;;;;;3.91;100.00;98343.84;15300755;19;20026;-79
2023/02/01 00:27:03;;;;;;;6.50;1.73;;;;;;;3.81;100.00;98338.41;15301501;19;20018;-76
2023/02/01 00:32:27;;;;;;;6.85;1.85;;;;;;;3.88;100.00;98344.94;15299030;19;20041;-79
2023/02/01 00:37:54;;;;;;;8.25;1.60;;;;;;;3.87;100.00;98347.75;15295970;19;20498;-77
2023/02/01 00:43:21;;;;;;;4.78;1.60;;;;;;;3.96;100.00;98347.84;15296639;19;20018;-80
2023/02/01 00:48:49;;;;;;;5.05;1.67;;;;;;;3.98;100.00;98359.25;15294251;19;20039;-78
2023/02/01 00:54:16;;;;;;;7.07;1.52;;;;;;;3.94;100.00;98352.44;15298675;19;20476;-77
2023/02/01 00:59:48;;;;;;;6.53;1.65;;;;;;;3.97;100.00;98348.72;15291141;19;20015;-76
2023/02/01 01:05:13;;;;;;;4.97;1.63;;;;;;;3.93;100.00;98341.91;15299449;19;20036;-80
2023/02/01 01:10:41;;;;;;;7.93;1.70;;;;;;;3.90;100.00;98332.34;15294187;19;20027;-79
2023/02/01 01:16:08;;;;;;;6.80;1.70;;;;;;;3.95;100.00;98340.00;15285625;19;20018;-80
2023/02/01 01:21:34;;;;;;;5.38;1.60;;;;;;;3.83;100.00;98317.81;15297892;19;20022;-78
2023/02/01 01:27:02;;;;;;;9.20;1.70;;;;;;;3.85;100.00;98313.19;15286817;19;20555;-78
2023/02/01 01:32:28;;;;;;;7.85;1.70;;;;;;;3.80;100.00;98323.41;15300772;19;20010;-79
2023/02/01 01:37:54;;;;;;;8.85;1.95;;;;;;;3.84;100.00;98316.84;15288548;19;20586;-80
2023/02/01 01:43:26;;;;;;;5.75;1.77;;;;;;;3.77;100.00;98311.13;15293736;19;20018;-78
2023/02/01 01:48:55;;;;;;;7.00;1.90;;;;;;;3.82;100.00;98305.47;15296596;19;20427;-79
2023/02/01 01:54:25;;;;;;;5.75;1.70;;;;;;;3.80;100.00;98296.75;15314962;19;20019;-79
2023/02/01 02:00:00;;;;;;;8.87;2.10;;;;;;;3.83;100.00;98299.16;15330239;19;20010;-81
2023/02/01 02:05:29;;;;;;;7.53;1.95;;;;;;;3.82;100.00;98297.47;15322693;19;20022;-79
2023/02/01 02:11:03;;;;;;;7.72;1.73;;;;;;;3.84;100.00;98296.38;15292509;19;20010;-83
2023/02/01 02:16:57;;;;;;;5.22;1.67;;;;;;;3.84;100.00;98295.53;15291374;19;20086;-84
2023/02/01 02:22:50;;;;;;;6.72;2.13;;;;;;;3.84;100.00;98283.06;15289000;19;20488;-82
2023/02/01 02:28:30;;;;;;;7.50;2.15;;;;;;;3.89;100.00;98266.69;15296493;19;20034;-84
2023/02/01 02:34:14;;;;;;;8.10;2.28;;;;;;;3.87;100.00;98251.81;15292396;19;20022;-80
2023/02/01 02:40:09;;;;;;;9.63;2.30;;;;;;;3.80;100.00;98256.78;15312261;19;20007;-83
2023/02/01 03:09:03;;;;;;;8.05;1.90;;;;;;;3.83;100.00;98245.84;15291768;19;20368;-80
2023/02/01 03:20:26;;;;;;;10.18;2.38;;;;;;;3.67;100.00;98233.78;15321868;19;20055;-80
2023/02/01 03:26:02;;;;;;;9.52;2.30;;;;;;;3.69;100.00;98238.97;15320141;19;20022;-84
2023/02/01 03:31:27;;;;;;;7.15;2.10;;;;;;;3.67;100.00;98231.09;15308549;19;20464;-83
2023/02/01 03:36:58;;;;;;;6.85;1.88;;;;;;;3.54;100.00;98225.91;15309449;19;20498;-78
2023/02/01 03:42:33;;;;;;;8.93;2.20;;;;;;;3.50;100.00;98213.81;15299525;19;20046;-80
2023/02/01 03:48:01;;;;;;;8.27;1.95;;;;;;;3.45;100.00;98215.13;15294210;19;20018;-79
2023/02/01 03:53:30;;;;;;;9.25;2.17;;;;;;;3.47;100.00;98207.88;15318973;19;20458;-82
2023/02/01 03:59:03;;;;;;;7.28;2.10;;;;;;;3.47;100.00;98199.91;15309321;19;20031;-79
2023/02/01 04:04:28;;;;;;;8.23;2.08;;;;;;;3.41;100.00;98205.69;15302980;19;20035;-78
2023/02/01 04:09:53;;;;;;;10.35;2.30;;;;;;;3.43;100.00;98211.75;15300349;19;20070;-80
2023/02/01 04:15:24;;;;;;;6.80;1.80;;;;;;;3.40;100.00;98218.16;15297995;19;20011;-82
2023/02/01 04:20:40;;;;;;;7.38;2.08;;;;;;;3.37;100.00;98216.56;15290682;19;20046;-81
2023/02/01 04:26:06;;;;;;;8.55;1.92;;;;;;;3.47;100.00;98219.38;15290965;19;20035;-81
2023/02/01 04:31:36;;;;;;;9.55;2.25;;;;;;;3.53;100.00;98202.88;15303788;19;20018;-83
2023/02/01 04:37:02;;;;;;;5.47;1.60;;;;;;;3.59;100.00;98182.91;15307184;19;20038;-80
2023/02/01 04:42:26;;;;;;;5.97;1.80;;;;;;;3.54;100.00;98169.13;15307574;19;20420;-79
2023/02/01 04:47:53;;;;;;;6.90;1.83;;;;;;;3.53;100.00;98170.09;15306661;19;20034;-83
2023/02/01 04:53:18;;;;;;;4.15;1.50;;;;;;;3.38;100.00;98157.03;15311535;19;20014;-82
2023/02/01 04:58:44;;;;;;;5.80;1.80;;;;;;;3.28;100.00;98160.56;15304215;19;20010;-81
2023/02/01 05:04:12;;;;;;;4.80;1.40;;;;;;;3.28;100.00;98147.25;15301263;19;20018;-84
2023/02/01 05:09:37;;;;;;;5.25;1.73;;;;;;;3.23;100.00;98136.97;15302345;19;20720;-82
2023/02/01 05:15:01;;;;;;;4.90;1.80;;;;;;;3.24;100.00;98122.66;15306683;19;20342;-80
2023/02/01 05:20:29;;;;;;;7.10;1.80;;;;;;;3.17;100.00;98121.47;15300170;19;20018;-79
2023/02/01 05:25:54;;;;;;;5.63;1.70;;;;;;;3.18;100.00;98121.31;15294973;19;20015;-80
2023/02/01 05:31:20;;;;;;;5.95;1.60;;;;;;;3.08;100.00;98107.94;15292101;19;20014;-83
2023/02/01 05:36:47;;;;;;;10.60;2.10;;;;;;;3.05;100.00;98102.84;15291589;19;20081;-79
2023/02/01 05:42:12;;;;;;;5.78;1.60;;;;;;;3.03;100.00;98099.44;15304621;19;20010;-81
2023/02/01 05:47:36;;;;;;;7.07;2.10;;;;;;;3.00;100.00;98099.69;15301136;19;20018;-79
2023/02/01 05:53:10;;;;;;;8.82;2.00;;;;;;;3.02;100.00;98104.91;15291168;19;20025;-80
2023/02/01 05:58:35;;;;;;;7.55;1.95;;;;;;;3.05;100.00;98104.66;15290844;19;20127;-79
2023/02/01 06:04:00;;;;;;;8.57;2.40;;;;;;;3.10;100.00;98093.66;15288848;19;20528;-79
2023/02/01 06:09:29;;;;;;;8.40;1.88;;;;;;;3.01;100.00;98098.72;15280002;19;20014;-78
2023/02/01 06:14:54;;;;;;;6.43;1.83;;;;;;;3.05;100.00;98086.03;15287517;19;20014;-78
2023/02/01 06:20:19;;;;;;;8.13;1.90;;;;;;;3.04;100.00;98095.81;15288305;19;20077;-78
2023/02/01 06:25:47;;;;;;;8.35;1.92;;;;;;;3.09;100.00;98079.47;15288683;19;20024;-80
2023/02/01 06:31:13;;;;;;;7.93;2.00;;;;;;;3.27;100.00;98086.97;15303353;19;20017;-79
2023/02/01 06:36:38;;;;;;;7.10;1.88;;;;;;;3.43;100.00;98121.19;15293145;19;20037;-81
2023/02/01 06:42:05;;;;;;;8.27;2.13;;;;;;;3.55;100.00;98090.91;15287491;19;20013;-80
2023/02/01 06:47:30;;;;;;;6.90;1.90;;;;;;;3.62;100.00;98068.13;15294240;19;20018;-80
2023/02/01 06:52:56;;;;;;;5.90;1.83;;;;;;;3.64;100.00;98070.69;15290703;19;20468;-81
2023/02/01 06:58:23;;;;;;;5.50;1.95;;;;;;;3.60;100.00;98079.88;15289917;19;20018;-81
2023/02/01 07:03:51;;;;;;;10.85;2.25;;;;;;;3.57;100.00;98078.31;15293951;19;20018;-80
2023/02/01 07:09:16;;;;;;;7.50;2.05;;;;;;;3.58;100.00;98073.81;15290801;19;20019;-79
2023/02/01 07:14:43;;;;;;;5.55;1.60;;;;;;;3.59;100.00;98059.53;15299110;19;20347;-81
2023/02/01 07:20:08;;;;;;;6.43;1.83;;;;;;;3.66;100.00;98072.22;15299605;19;20011;-80
2023/02/01 07:25:33;;;;;;;6.57;1.65;;;;;;;3.62;100.00;98070.78;15299132;19;20010;-83
2023/02/01 07:31:01;;;;;;;4.93;1.70;;;;;;;3.62;100.00;98077.94;15301942;19;20019;-80
2023/02/01 07:36:26;;;;;;;5.60;1.60;;;;;;;3.68;100.00;98067.63;15290053;19;20511;-83
2023/02/01 07:41:51;;;;;;;7.25;1.88;;;;;;;3.81;100.00;98061.28;15279586;19;20074;-78
2023/02/01 07:47:20;;;;;;;5.68;1.80;;;;;;;3.78;100.00;98085.50;15288576;19;20033;-83
2023/02/01 07:52:44;;;;;;;5.93;1.65;;;;;;;3.78;100.00;98070.34;15291358;19;20021;-78
2023/02/01 07:58:09;;;;;;;7.43;1.80;;;;;;;3.80;100.00;98075.59;15298987;19;20006;-80
2023/02/01 08:03:38;;;;;;;6.70;1.90;;;;;;;3.76;100.00;98098.09;15308237;19;20006;-79
2023/02/01 08:09:03;;;;;;;6.38;1.80;;;;;;;3.80;100.00;98079.06;15306297;19;20019;-79
2023/02/01 08:14:27;;;;;;;6.18;1.60;;;;;;;3.81;100.00;98070.13;15302461;19;20019;-79
2023/02/01 08:19:54;;;;;;;7.57;1.85;;;;;;;3.70;100.00;98065.66;15297448;19;20081;-78
2023/02/01 08:25:19;;;;;;;8.52;1.83;;;;;;;3.79;100.00;98077.38;15303091;19;20074;-79
2023/02/01 08:30:44;;;;;;;5.25;1.60;;;;;;;3.80;100.00;98070.25;15305570;19;20023;-78
2023/02/01 08:36:14;;;;;;;5.57;1.70;;;;;;;3.85;100.00;98081.34;15301170;19;20015;-79
2023/02/01 08:41:39;;;;;;;7.07;2.08;;;;;;;3.96;100.00;98107.97;15293972;19;20418;-80
2023/02/01 08:47:05;;;;;;;5.18;1.83;;;;;;;4.04;100.00;98082.50;15290341;19;20014;-80
2023/02/01 08:52:34;;;;;;;6.90;1.92;;;;;;;4.03;100.00;98088.81;15292556;19;20022;-78
2023/02/01 08:57:58;;;;;;;6.60;1.80;;;;;;;4.00;100.00;98111.22;15289906;19;20032;-78
2023/02/01 09:03:24;;;;;;;6.45;1.85;;;;;;;4.01;100.00;98105.78;15270241;19;20015;-77
2023/02/01 09:08:51;;;;;;;5.60;1.70;;;;;;;3.91;100.00;98114.66;15287416;19;20034;-78
2023/02/01 09:14:16;;;;;;;7.00;1.90;;;;;;;3.97;100.00;98130.97;15290492;19;20283;-80
2023/02/01 09:19:41;;;;;;;7.55;1.90;;;;;;;3.98;100.00;98118.53;15285840;19;20058;-77
2023/02/01 09:25:10;;;;;;;5.10;1.65;;;;;;;3.94;100.00;98115.25;15292356;19;20477;-77
2023/02/01 09:30:36;;;;;;;6.80;2.13;;;;;;;4.01;100.00;98120.91;15329946;19;20046;-76
2023/02/01 09:36:04;;;;;;;5.97;1.80;;;;;;;4.16;100.00;98102.81;15298988;19;20018;-81
2023/02/01 09:41:42;;;;;;;10.02;2.10;;;;;;;4.32;100.00;98131.69;15288952;19;20654;-81
2023/02/01 09:47:14;;;;;;;6.90;1.67;;;;;;;4.41;100.00;98108.75;15286549;19;20365;-80
2023/02/01 09:52:46;;;;;;;8.60;1.40;;;;;;;4.58;100.00;98166.00;15285407;19;20074;-77
2023/02/01 09:58:18;;;;;;;5.37;1.80;;;;;;;4.68;100.00;98150.03;15284812;19;20029;-80
2023/02/01 10:03:44;;;;;;;6.97;1.80;;;;;;;4.76;100.00;98150.25;15289579;19;20016;-78
2023/02/01 10:09:30;;;;;;;4.63;1.25;;;;;;;4.65;100.00;98139.63;15283707;19;20015;-81
2023/02/01 10:15:08;;;;;;;5.60;1.38;;;;;;;4.58;100.00;98145.50;15284228;19;20007;-77
2023/02/01 10:20:47;;;;;;;5.60;1.27;;;;;;;4.57;100.00;98145.63;15277681;19;20066;-79
2023/02/01 10:26:21;;;;;;;5.45;1.48;;;;;;;4.60;100.00;98156.88;15280493;19;20066;-79
2023/02/01 10:31:49;;;;;;;5.57;1.65;;;;;;;4.69;100.00;98139.25;15283021;19;20024;-77
2023/02/01 10:37:33;;;;;;;5.32;1.58;;;;;;;4.87;100.00;98136.84;15283566;19;20098;-77
2023/02/01 10:43:02;;;;;;;7.22;1.67;;;;;;;5.11;100.00;98146.38;15284289;19;20025;-77
2023/02/01 10:48:30;;;;;;;5.68;1.50;;;;;;;5.11;100.00;98161.53;15289694;19;20058;-79
2023/02/01 10:54:01;;;;;;;3.53;1.38;;;;;;;5.01;100.00;98132.97;15293015;19;20773;-79
2023/02/01 10:59:36;;;;;;;3.60;1.50;;;;;;;5.07;100.00;98147.59;15292422;19;20014;-79
2023/02/01 11:05:11;;;;;;;5.70;1.50;;;;;;;5.27;100.00;98123.66;15289993;19;20066;-78
2023/02/01 11:10:47;;;;;;;3.63;1.20;;;;;;;5.20;100.00;98128.69;15285970;19;20031;-79
2023/02/01 11:16:16;;;;;;;5.60;1.42;;;;;;;5.19;100.00;98116.31;15288752;19;20492;-78
2023/02/01 11:21:44;;;;;;;6.57;1.40;;;;;;;5.27;100.00;98161.91;15279846;19;20015;-79
2023/02/01 11:27:18;;;;;;;6.03;1.48;;;;;;;5.33;100.00;98125.78;15283301;19;20015;-79
2023/02/01 11:32:47;;;;;;;6.47;1.70;;;;;;;5.48;100.00;98100.38;15293890;19;20688;-78
2023/02/01 11:38:24;;;;;;;4.57;1.30;;;;;;;5.33;100.00;98117.78;15292921;19;20093;-78
2023/02/01 11:44:04;;;;;;;5.47;1.40;;;;;;;5.32;100.00;98108.91;15303064;19;20007;-79
2023/02/01 11:49:30;;;;;;;4.53;1.15;;;;;;;5.31;100.00;98098.38;15297469;19;20035;-80
2023/02/01 11:55:16;;;;;;;5.25;1.58;;;;;;;5.27;100.00;98128.97;15300203;19;20010;-80
2023/02/01 12:00:59;;;;;;;4.20;1.30;;;;;;;5.30;100.00;98107.34;15290665;19;20018;-79
2023/02/01 12:06:32;;;;;;;4.95;1.45;;;;;;;5.25;100.00;98094.41;15305773;19;20018;-77
2023/02/01 12:12:09;;;;;;;4.70;1.50;;;;;;;5.18;100.00;98107.47;15302257;19;20010;-80
2023/02/01 12:18:02;;;;;;;7.85;1.73;;;;;;;5.17;100.00;98107.59;15300418;19;20031;-79
2023/02/01 12:23:35;;;;;;;;;;;;;;;5.14;100.00;98094.50;15298367;19;21273;-79
2023/02/01 12:29:26;;;;;;;3.85;1.20;;;;;;;5.12;100.00;98075.09;15293635;19;19918;-81
2023/02/01 12:35:18;;;;;;;5.57;1.92;;;;;;;5.16;100.00;98073.88;15295175;19;20010;-79
2023/02/01 12:40:52;;;;;;;;;;;;;;;5.19;100.00;98069.09;15294717;19;20481;-77
2023/02/01 12:46:26;;;;;;;4.35;1.38;;;;;;;5.17;100.00;98087.06;15298346;19;19915;-81
2023/02/01 12:51:56;;;;;;;5.00;1.52;;;;;;;5.12;100.00;98069.75;15296111;19;20025;-80
2023/02/01 12:57:28;;;;;;;5.43;1.65;;;;;;;5.12;100.00;98077.78;15293870;19;20085;-79
2023/02/01 13:03:09;;;;;;;5.38;1.58;;;;;;;5.14;100.00;98052.63;15289075;19;20036;-78
2023/02/01 13:08:44;;;;;;;3.85;1.17;;;;;;;5.09;100.00;98046.84;15288692;19;20030;-80
2023/02/01 13:14:14;;;;;;;5.15;1.38;;;;;;;5.11;100.00;98023.53;15295772;19;20027;-80
2023/02/01 13:19:47;;;;;;;5.97;1.58;;;;;;;5.08;100.00;98024.63;15321610;19;20023;-79
2023/02/01 13:25:20;;;;;;;6.22;1.50;;;;;;;5.07;100.00;98016.78;15318229;19;20018;-81
2023/02/01 13:31:21;;;;;;;4.88;1.40;;;;;;;5.09;100.00;98004.97;15304038;19;20010;-80
2023/02/01 13:37:11;;;;;;;5.35;1.52;;;;;;;5.08;100.00;98005.13;15303160;19;20022;-79
2023/02/01 13:42:46;;;;;;;3.80;1.38;;;;;;;5.04;100.00;97983.19;15304291;19;20029;-81
2023/02/01 13:48:27;;;;;;;4.63;1.60;;;;;;;5.01;100.00;97964.78;15299504;19;20010;-79
2023/02/01 13:54:02;;;;;;;;;;;;;;;5.01;100.00;97983.44;15315627;19;20014;-80
2023/02/01 13:59:47;;;;;;;5.97;1.65;;;;;;;5.08;100.00;97978.41;15308630;19;19954;-80
2023/02/01 14:06:02;;;;;;;4.55;1.58;;;;;;;5.19;100.00;97978.28;15309438;19;20014;-79
2023/02/01 14:11:46;;;;;;;6.78;1.63;;;;;;;5.11;100.00;97983.50;15276563;19;20015;-81
2023/02/01 14:17:36;;;;;;;6.97;1.75;;;;;;;5.12;100.00;97969.13;15279119;19;20029;-80
2023/02/01 14:23:10;;;;;;;6.18;1.65;;;;;;;5.19;100.00;97935.56;15278997;19;20075;-80
2023/02/01 14:28:41;;;;;;;6.63;1.70;;;;;;;5.23;100.00;97920.94;15280443;19;20014;-79
2023/02/01 14:34:08;;;;;;;5.20;1.60;;;;;;;5.19;100.00;97924.88;15282959;19;20018;-79
2023/02/01 14:39:53;;;;;;;4.80;1.50;;;;;;;5.16;100.00;97932.34;15286996;19;20612;-80
2023/02/01 14:45:49;;;;;;;3.55;1.25;;;;;;;5.12;100.00;97910.38;15278548;19;20429;-81
2023/02/01 14:51:20;;;;;;;5.03;1.50;;;;;;;5.08;100.00;97922.34;15287754;19;20019;-83
2023/02/01 14:56:44;;;;;;;3.97;1.40;;;;;;;5.01;100.00;97890.00;15285399;19;20018;-80
2023/02/01 15:02:31;;;;;;;4.90;1.55;;;;;;;5.08;100.00;97880.44;15282326;19;20018;-76
2023/02/01 15:08:03;;;;;;;3.08;1.27;;;;;;;5.10;100.00;97907.03;15281305;19;20477;-78
2023/02/01 15:13:30;;;;;;;4.43;1.25;;;;;;;5.10;100.00;97899.03;15280515;19;20357;-78
2023/02/01 15:19:10;;;;;;;4.15;1.27;;;;;;;4.99;100.00;97893.81;15275857;19;20019;-78
2023/02/01 15:24:38;;;;;;;5.13;1.35;;;;;;;4.96;100.00;97910.94;15278905;19;20074;-77
2023/02/01 15:30:08;;;;;;;5.85;1.65;;;;;;;4.86;100.00;97883.38;15272736;19;20011;-78
2023/02/01 15:35:46;;;;;;;7.20;1.40;;;;;;;4.82;100.00;97874.81;15280872;19;20029;-78
2023/02/01 15:41:17;;;;;;;3.92;1.20;;;;;;;4.79;100.00;97891.09;15281824;19;20027;-77
2023/02/01 15:46:45;;;;;;;4.50;1.30;;;;;;;4.75;100.00;97905.72;15276647;19;20614;-76
2023/02/01 15:52:23;;;;;;;5.28;1.73;;;;;;;4.65;100.00;97888.81;15277246;19;20437;-77
2023/02/01 15:57:51;;;;;;;2.85;1.05;;;;;;;4.56;100.00;97917.19;15280608;19;20035;-80
2023/02/01 16:03:42;;;;;;;3.38;1.20;;;;;;;4.59;100.00;97912.41;15278527;19;20090;-79
2023/02/01 16:09:15;;;;;;;5.57;1.30;;;;;;;4.42;100.00;97940.56;15280443;19;20058;-80
2023/02/01 16:14:42;;;;;;;2.97;1.15;;;;;;;4.45;100.00;97915.44;15272416;19;20657;-77
2023/02/01 16:20:09;;;;;;;3.65;1.05;;;;;;;4.53;100.00;97923.59;15275618;19;20014;-79
2023/02/01 16:25:34;;;;;;;3.50;0.90;;;;;;;4.66;100.00;97919.84;15293114;19;20564;-77
2023/02/01 16:31:02;;;;;;;4.50;1.15;;;;;;;4.61;100.00;97891.78;15294834;19;20022;-77
2023/02/01 16:36:28;;;;;;;5.82;1.20;;;;;;;4.72;100.00;97900.66;15299681;19;20391;-77
2023/02/01 16:41:53;;;;;;;3.08;1.08;;;;;;;4.79;100.00;97888.44;15302724;19;20022;-79
2023/02/01 16:47:26;;;;;;;2.10;0.80;;;;;;;4.97;100.00;97914.47;15294834;19;20039;-75
2023/02/01 16:52:51;;;;;;;4.05;1.02;;;;;;;4.66;100.00;97976.75;15284062;19;20021;-75
2023/02/01 16:58:15;;;;;;;2.58;0.70;;;;;;;2.62;100.00;98106.22;15286741;19;20018;-78
2023/02/01 17:03:49;;;;;;;0.80;0.40;;;;;;;1.73;100.00;98133.19;15297639;19;20039;-79
2023/02/01 17:09:17;;;;;;;0.75;0.50;;;;;;;1.29;100.00;98140.78;15298180;19;20090;-78
2023/02/01 17:14:47;;;;;;;0.50;0.50;;;;;;;1.07;100.00;98128.19;15325674;19;20018;-78
2023/02/01 17:20:22;;;;;;;2.13;1.10;;;;;;;0.94;100.00;98143.28;15285356;19;20014;-78
2023/02/01 17:25:47;;;;;;;2.50;0.90;;;;;;;1.00;100.00;98143.69;15291044;19;20018;-79
2023/02/01 17:31:16;;;;;;;1.38;0.77;;;;;;;1.08;100.00;98182.94;15283569;19;20018;-79
2023/02/01 17:36:43;;;;;;;2.92;0.80;;;;;;;1.12;100.00;98199.50;15289113;19;20038;-78
2023/02/01 17:42:13;;;;;;;4.07;1.17;;;;;;;1.06;100.00;98232.63;15285714;19;20023;-78
2023/02/01 17:47:38;;;;;;;4.22;1.15;;;;;;;0.87;100.00;98217.97;15286197;19;20023;-79
2023/02/01 17:53:08;;;;;;;2.97;1.27;;;;;;;1.02;100.00;98216.06;15290407;19;20022;-79
2023/02/01 17:58:34;;;;;;;2.65;1.00;;;;;;;1.13;100.00;98215.31;15284055;19;20018;-79
2023/02/01 18:04:05;;;;;;;3.90;1.10;;;;;;;1.09;100.00;98237.72;15286957;19;20399;-79
2023/02/01 18:09:33;;;;;;;1.85;0.80;;;;;;;1.04;100.00;98239.81;15276700;19;20010;-78
2023/02/01 18:14:58;;;;;;;2.08;1.00;;;;;;;0.99;100.00;98234.00;15291024;19;20088;-79
2023/02/01 18:20:26;;;;;;;2.03;0.93;;;;;;;1.00;100.00;98217.97;15281982;19;20018;-78
2023/02/01 18:25:53;;;;;;;3.55;1.20;;;;;;;1.06;100.00;98222.00;15291386;19;20018;-78
2023/02/01 18:31:23;;;;;;;4.30;1.17;;;;;;;1.26;100.00;98209.13;15292585;19;20018;-80
2023/02/01 18:36:47;;;;;;;3.65;1.23;;;;;;;1.51;100.00;98210.94;15291828;19;20484;-80
2023/02/01 18:42:15;;;;;;;2.13;1.08;;;;;;;1.66;100.00;98209.81;15296091;19;20058;-80
2023/02/01 18:47:39;;;;;;;2.30;1.00;;;;;;;1.68;100.00;98186.66;15298260;19;20010;-79
2023/02/01 18:53:06;;;;;;;3.47;1.02;;;;;;;1.77;100.00;98158.59;15298230;19;20058;-79
2023/02/01 18:58:34;;;;;;;2.53;0.93;;;;;;;1.84;100.00;98175.75;15323708;19;20022;-80
2023/02/01 19:04:07;;;;;;;2.45;1.00;;;;;;;1.93;100.00;98173.41;15321355;19;20060;-76
2023/02/01 19:09:40;;;;;;;2.50;0.90;;;;;;;1.88;100.00;98167.56;15337789;19;20015;-76
2023/02/01 19:15:07;;;;;;;3.10;0.90;;;;;;;1.96;100.00;98171.38;15338875;19;20010;-77
2023/02/01 19:20:32;;;;;;;5.60;1.40;;;;;;;1.99;100.00;98162.31;15329272;19;20019;-75
2023/02/01 19:25:58;;;;;;;3.10;1.30;;;;;;;2.10;100.00;98159.69;15307471;19;20022;-77
2023/02/01 19:31:28;;;;;;;2.25;1.10;;;;;;;2.08;100.00;98176.72;15289829;19;20121;-78
2023/02/01 19:36:53;;;;;;;1.48;0.85;;;;;;;2.13;100.00;98167.47;15286080;19;20015;-78
2023/02/01 19:42:18;;;;;;;3.63;1.15;;;;;;;2.15;100.00;98157.56;15281248;19;20015;-77
2023/02/01 19:47:45;;;;;;;2.08;1.00;;;;;;;2.12;100.00;98165.75;15282732;19;20014;-77
2023/02/01 19:53:11;;;;;;;3.40;1.30;;;;;;;2.26;100.00;98171.84;15288458;19;20016;-78
2023/02/01 19:58:35;;;;;;;3.45;1.35;;;;;;;2.46;100.00;98143.78;15286934;19;20024;-78
2023/02/01 20:04:11;;;;;;;4.78;1.23;;;;;;;2.71;100.00;98148.06;15291280;19;20426;-80
2023/02/01 20:09:37;;;;;;;5.88;1.40;;;;;;;2.66;100.00;98144.88;15290528;19;20046;-78
2023/02/01 20:15:03;;;;;;;4.50;1.40;;;;;;;2.89;100.00;98140.47;15308165;19;20078;-82
2023/02/01 20:20:32;;;;;;;5.50;1.25;;;;;;;3.06;100.00;98131.16;15307228;19;21488;-82
2023/02/01 20:25:56;;;;;;;6.82;1.65;;;;;;;3.18;100.00;98113.34;15301708;19;20038;-81
2023/02/01 20:31:23;;;;;;;5.50;1.33;;;;;;;3.13;100.00;98125.31;15307546;19;20018;-81
2023/02/01 20:36:50;;;;;;;2.63;0.90;;;;;;;2.91;100.00;98140.31;15310701;19;20690;-81
2023/02/01 20:42:15;;;;;;;3.72;1.10;;;;;;;2.89;100.00;98147.56;15311539;19;20557;-78
2023/02/01 20:47:41;;;;;;;3.55;0.90;;;;;;;2.76;100.00;98161.81;15277589;19;20014;-53
2023/02/01 20:53:10;;;;;;;2.13;0.85;;;;;;;2.63;100.00;98145.16;15277361;19;20025;-48
2023/02/01 20:58:43;;;;;;;2.83;0.90;;;;;;;2.67;100.00;98162.53;15271634;19;20094;-51
2023/02/01 21:04:08;;;;;;;3.20;0.90;;;;;;;2.57;100.00;98156.22;15269751;19;20491;-50
2023/02/01 21:09:39;;;;;;;3.45;1.00;;;;;;;2.59;100.00;98156.97;15270876;19;20039;-48
2023/02/01 21:15:06;;;;;;;3.33;1.00;;;;;;;2.61;100.00;98168.34;15275222;19;20053;-48
2023/02/01 21:20:31;;;;;;;2.28;0.90;;;;;;;2.64;100.00;98175.22;15269131;19;20311;-53
2023/02/01 21:26:03;;;;;;;1.85;0.80;;;;;;;2.69;100.00;98176.56;15261397;19;20098;-50
2023/02/01 21:31:28;;;;;;;3.38;1.08;;;;;;;2.72;100.00;98179.00;15272558;19;20026;-52
2023/02/01 21:36:55;;;;;;;3.67;0.85;;;;;;;2.71;100.00;98185.28;15267285;19;20022;-49
2023/02/01 21:42:23;;;;;;;2.45;1.02;;;;;;;2.70;100.00;98186.25;15269278;19;20488;-47
2023/02/01 21:47:48;;;;;;;2.55;0.90;;;;;;;2.77;100.00;98195.44;15267637;19;20499;-50
2023/02/01 21:53:12;;;;;;;2.53;1.00;;;;;;;2.70;100.00;98204.03;15272229;19;20014;-48
2023/02/01 21:58:40;;;;;;;2.58;1.00;;;;;;;2.69;100.00;98208.50;15262034;19;20041;-52
2023/02/01 22:04:05;;;;;;;2.75;1.10;;;;;;;2.68;100.00;98205.97;15269087;19;20462;-51
2023/02/01 22:09:31;;;;;;;2.33;1.00;;;;;;;2.61;100.00;98206.41;15264723;19;20043;-47
2023/02/01 22:14:59;;;;;;;3.67;1.20;;;;;;;2.58;100.00;98193.38;15266956;19;20018;-48
2023/02/01 22:20:27;;;;;;;3.60;1.13;;;;;;;2.56;100.00;98205.06;15264130;19;20523;-47
2023/02/01 22:25:53;;;;;;;4.45;1.10;;;;;;;2.47;100.00;98210.13;15263823;19;20685;-53
2023/02/01 22:31:22;;;;;;;5.18;1.20;;;;;;;2.54;100.00;98207.00;15261976;19;20503;-47
2023/02/01 22:36:47;;;;;;;5.20;1.50;;;;;;;2.48;100.00;98195.00;15264757;19;20046;-49
2023/02/01 22:42:12;;;;;;;3.58;1.15;;;;;;;2.40;100.00;98197.41;15273243;19;20531;-46
2023/02/01 22:47:39;;;;;;;6.10;1.45;;;;;;;2.33;100.00;98209.47;15270883;19;20572;-46
2023/02/01 22:53:05;;;;;;;3.22;1.30;;;;;;;2.36;100.00;98215.41;15273428;19;20026;-46
2023/02/01 22:58:29;;;;;;;4.80;1.50;;;;;;;2.34;100.00;98232.44;15265949;19;20046;-49
2023/02/01 23:04:01;;;;;;;4.68;1.33;;;;;;;2.31;100.00;98214.88;15259604;19;20489;-50
2023/02/01 23:09:27;;;;;;;4.20;1.60;;;;;;;2.25;100.00;98228.63;15261668;19;20019;-47
2023/02/01 23:15:07;;;;;;;6.38;1.70;;;;;;;2.31;100.00;98223.72;15267558;19;20021;-48
2023/02/01 23:20:34;;;;;;;6.25;1.50;;;;;;;2.40;100.00;98210.69;15262309;19;20026;-49
2023/02/01 23:25:59;;;;;;;5.43;1.60;;;;;;;2.45;100.00;98212.03;15266676;19;20074;-50
2023/02/01 23:31:25;;;;;;;3.63;1.30;;;;;;;2.55;100.00;98195.38;15280592;19;20651;-50
2023/02/01 23:36:53;;;;;;;6.60;1.50;;;;;;;2.55;100.00;98184.75;14766277;19;10001143;-50
2023/02/01 23:42:18;;;;;;;3.90;1.27;;;;;;;2.53;100.00;98181.38;15278087;19;20375;-49
2023/02/01 23:47:43;;;;;;;4.55;1.15;;;;;;;2.45;100.00;98197.91;15282148;19;20496;-48
2023/02/01 23:53:10;;;;;;;3.25;1.10;;;;;;;2.49;100.00;98222.47;15285988;19;20025;-49
2023/02/01 23:58:35;;;;;;;4.38;1.20;;;;;;;2.67;100.00;98185.66;15283919;19;20023;-54
